sensor_id;sensor_type;location;lat;lon;timestamp;P1;durP1;ratioP1;P2;durP2;ratioP2
20792;SDS011;10556;-33.662;151.094;2022-09-29T00:03:39;0.83;;;0.30;;
20792;SDS011;10556;-33.662;151.094;2022-09-29T00:08:43;0.30;;;0.17;;
20792;SDS011;10556;-33.662;151.094;2022-09-29T00:13:44;1.07;;;0.30;;
20792;SDS011;10556;-33.662;151.094;2022-09-29T00:18:46;0.60;;;0.30;;
20792;SDS011;10556;-33.662;151.094;2022-09-29T00:23:49;0.47;;;0.20;;
20792;SDS011;10556;-33.662;151.094;2022-09-29T00:28:52;0.13;;;0.10;;
20792;SDS011;10556;-33.662;151.094;2022-09-29T00:33:54;1.53;;;0.30;;
20792;SDS011;10556;-33.662;151.094;2022-09-29T00:38:57;0.40;;;0.20;;
20792;SDS011;10556;-33.662;151.094;2022-09-29T00:43:59;1.03;;;0.20;;
20792;SDS011;10556;-33.662;151.094;2022-09-29T00:49:02;0.60;;;0.30;;
20792;SDS011;10556;-33.662;151.094;2022-09-29T00:54:07;1.63;;;0.13;;
20792;SDS011;10556;-33.662;151.094;2022-09-29T00:59:10;0.73;;;0.10;;
20792;SDS011;10556;-33.662;151.094;2022-09-29T01:04:14;0.97;;;0.13;;
20792;SDS011;10556;-33.662;151.094;2022-09-29T01:09:19;1.13;;;0.17;;
20792;SDS011;10556;-33.662;151.094;2022-09-29T01:14:21;0.10;;;0.10;;
20792;SDS011;10556;-33.662;151.094;2022-09-29T01:19:24;0.20;;;0.10;;
20792;SDS011;10556;-33.662;151.094;2022-09-29T01:24:35;0.20;;;0.20;;
20792;SDS011;10556;-33.662;151.094;2022-09-29T01:29:55;0.20;;;0.10;;
20792;SDS011;10556;-33.662;151.094;2022-09-29T01:35:04;0.70;;;0.20;;
20792;SDS011;10556;-33.662;151.094;2022-09-29T01:40:09;0.57;;;0.20;;
20792;SDS011;10556;-33.662;151.094;2022-09-29T01:45:13;0.17;;;0.10;;
20792;SDS011;10556;-33.662;151.094;2022-09-29T01:50:19;0.03;;;0.03;;
20792;SDS011;10556;-33.662;151.094;2022-09-29T01:55:22;0.20;;;0.10;;
20792;SDS011;10556;-33.662;151.094;2022-09-29T02:00:26;0.30;;;0.10;;
20792;SDS011;10556;-33.662;151.094;2022-09-29T02:05:32;0.90;;;0.30;;
20792;SDS011;10556;-33.662;151.094;2022-09-29T02:10:34;0.20;;;0.13;;
20792;SDS011;10556;-33.662;151.094;2022-09-29T02:15:37;0.67;;;0.10;;
20792;SDS011;10556;-33.662;151.094;2022-09-29T02:20:41;1.17;;;0.10;;
20792;SDS011;10556;-33.662;151.094;2022-09-29T02:25:43;0.20;;;0.17;;
20792;SDS011;10556;-33.662;151.094;2022-09-29T02:30:45;0.10;;;0.10;;
20792;SDS011;10556;-33.662;151.094;2022-09-29T02:35:53;0.70;;;0.10;;
20792;SDS011;10556;-33.662;151.094;2022-09-29T02:40:58;0.53;;;0.20;;
20792;SDS011;10556;-33.662;151.094;2022-09-29T02:46:05;0.53;;;0.20;;
20792;SDS011;10556;-33.662;151.094;2022-09-29T02:51:11;0.87;;;0.33;;
20792;SDS011;10556;-33.662;151.094;2022-09-29T02:56:17;0.63;;;0.20;;
20792;SDS011;10556;-33.662;151.094;2022-09-29T03:01:20;1.07;;;0.20;;
20792;SDS011;10556;-33.662;151.094;2022-09-29T03:06:24;1.30;;;0.20;;
20792;SDS011;10556;-33.662;151.094;2022-09-29T03:11:25;1.83;;;0.30;;
20792;SDS011;10556;-33.662;151.094;2022-09-29T03:16:27;1.27;;;0.20;;
20792;SDS011;10556;-33.662;151.094;2022-09-29T03:21:30;0.93;;;0.30;;
20792;SDS011;10556;-33.662;151.094;2022-09-29T03:26:34;0.63;;;0.27;;
20792;SDS011;10556;-33.662;151.094;2022-09-29T03:31:36;0.97;;;0.30;;
20792;SDS011;10556;-33.662;151.094;2022-09-29T03:36:41;0.57;;;0.30;;
20792;SDS011;10556;-33.662;151.094;2022-09-29T03:41:42;0.50;;;0.20;;
20792;SDS011;10556;-33.662;151.094;2022-09-29T03:46:43;0.83;;;0.20;;
20792;SDS011;10556;-33.662;151.094;2022-09-29T03:51:47;1.00;;;0.30;;
20792;SDS011;10556;-33.662;151.094;2022-09-29T03:56:48;0.30;;;0.10;;
20792;SDS011;10556;-33.662;151.094;2022-09-29T04:01:49;1.57;;;0.40;;
20792;SDS011;10556;-33.662;151.094;2022-09-29T04:06:53;2.80;;;0.80;;
20792;SDS011;10556;-33.662;151.094;2022-09-29T04:11:54;3.20;;;0.60;;
20792;SDS011;10556;-33.662;151.094;2022-09-29T04:16:55;1.97;;;0.50;;
20792;SDS011;10556;-33.662;151.094;2022-09-29T04:21:58;2.50;;;0.47;;
20792;SDS011;10556;-33.662;151.094;2022-09-29T04:27:00;1.33;;;0.43;;
20792;SDS011;10556;-33.662;151.094;2022-09-29T04:32:01;2.40;;;0.57;;
20792;SDS011;10556;-33.662;151.094;2022-09-29T04:37:06;3.60;;;0.50;;
20792;SDS011;10556;-33.662;151.094;2022-09-29T04:42:07;2.00;;;0.57;;
20792;SDS011;10556;-33.662;151.094;2022-09-29T04:47:08;2.80;;;0.43;;
20792;SDS011;10556;-33.662;151.094;2022-09-29T04:52:12;1.70;;;0.50;;
20792;SDS011;10556;-33.662;151.094;2022-09-29T04:57:13;2.03;;;0.50;;
20792;SDS011;10556;-33.662;151.094;2022-09-29T05:02:15;4.97;;;0.83;;
20792;SDS011;10556;-33.662;151.094;2022-09-29T05:07:18;4.03;;;0.53;;
20792;SDS011;10556;-33.662;151.094;2022-09-29T05:12:19;2.33;;;0.50;;
20792;SDS011;10556;-33.662;151.094;2022-09-29T05:17:20;1.00;;;0.40;;
20792;SDS011;10556;-33.662;151.094;2022-09-29T05:22:24;0.67;;;0.30;;
20792;SDS011;10556;-33.662;151.094;2022-09-29T05:27:25;1.27;;;0.30;;
20792;SDS011;10556;-33.662;151.094;2022-09-29T05:32:26;1.33;;;0.40;;
20792;SDS011;10556;-33.662;151.094;2022-09-29T05:37:29;3.67;;;0.40;;
20792;SDS011;10556;-33.662;151.094;2022-09-29T05:42:31;2.50;;;0.30;;
20792;SDS011;10556;-33.662;151.094;2022-09-29T05:47:32;3.27;;;0.50;;
20792;SDS011;10556;-33.662;151.094;2022-09-29T05:52:35;5.33;;;0.83;;
20792;SDS011;10556;-33.662;151.094;2022-09-29T05:57:37;7.40;;;0.60;;
20792;SDS011;10556;-33.662;151.094;2022-09-29T06:02:38;3.63;;;0.60;;
20792;SDS011;10556;-33.662;151.094;2022-09-29T06:07:41;6.03;;;0.63;;
20792;SDS011;10556;-33.662;151.094;2022-09-29T06:12:43;3.73;;;0.60;;
20792;SDS011;10556;-33.662;151.094;2022-09-29T06:17:44;4.57;;;0.60;;
20792;SDS011;10556;-33.662;151.094;2022-09-29T06:22:47;4.17;;;0.80;;
20792;SDS011;10556;-33.662;151.094;2022-09-29T06:27:49;4.03;;;0.50;;
20792;SDS011;10556;-33.662;151.094;2022-09-29T06:32:51;7.90;;;1.23;;
20792;SDS011;10556;-33.662;151.094;2022-09-29T06:37:56;4.60;;;1.00;;
20792;SDS011;10556;-33.662;151.094;2022-09-29T06:42:58;5.20;;;1.00;;
20792;SDS011;10556;-33.662;151.094;2022-09-29T06:47:59;3.50;;;0.80;;
20792;SDS011;10556;-33.662;151.094;2022-09-29T06:53:02;7.80;;;1.07;;
20792;SDS011;10556;-33.662;151.094;2022-09-29T06:58:04;5.60;;;0.90;;
20792;SDS011;10556;-33.662;151.094;2022-09-29T07:03:05;8.47;;;0.90;;
20792;SDS011;10556;-33.662;151.094;2022-09-29T07:08:08;5.77;;;0.80;;
20792;SDS011;10556;-33.662;151.094;2022-09-29T07:13:10;2.90;;;0.97;;
20792;SDS011;10556;-33.662;151.094;2022-09-29T07:18:11;5.90;;;0.97;;
20792;SDS011;10556;-33.662;151.094;2022-09-29T07:23:14;7.30;;;1.10;;
20792;SDS011;10556;-33.662;151.094;2022-09-29T07:28:16;8.23;;;1.47;;
20792;SDS011;10556;-33.662;151.094;2022-09-29T07:33:17;8.87;;;1.20;;
20792;SDS011;10556;-33.662;151.094;2022-09-29T07:38:20;11.07;;;1.50;;
20792;SDS011;10556;-33.662;151.094;2022-09-29T07:43:22;11.00;;;1.57;;
20792;SDS011;10556;-33.662;151.094;2022-09-29T07:48:23;12.53;;;2.33;;
20792;SDS011;10556;-33.662;151.094;2022-09-29T07:53:26;10.77;;;2.40;;
20792;SDS011;10556;-33.662;151.094;2022-09-29T07:58:28;15.90;;;2.07;;
20792;SDS011;10556;-33.662;151.094;2022-09-29T08:03:30;17.17;;;2.47;;
20792;SDS011;10556;-33.662;151.094;2022-09-29T08:08:33;15.30;;;2.07;;
20792;SDS011;10556;-33.662;151.094;2022-09-29T08:13:35;20.10;;;2.47;;
20792;SDS011;10556;-33.662;151.094;2022-09-29T08:18:36;12.10;;;2.00;;
20792;SDS011;10556;-33.662;151.094;2022-09-29T08:23:39;18.40;;;2.67;;
20792;SDS011;10556;-33.662;151.094;2022-09-29T08:28:41;13.17;;;2.07;;
20792;SDS011;10556;-33.662;151.094;2022-09-29T08:33:43;15.13;;;2.27;;
20792;SDS011;10556;-33.662;151.094;2022-09-29T08:38:46;17.13;;;3.97;;
20792;SDS011;10556;-33.662;151.094;2022-09-29T08:43:48;11.37;;;2.40;;
20792;SDS011;10556;-33.662;151.094;2022-09-29T08:48:50;11.03;;;1.57;;
20792;SDS011;10556;-33.662;151.094;2022-09-29T08:53:54;17.00;;;1.90;;
20792;SDS011;10556;-33.662;151.094;2022-09-29T08:58:56;17.03;;;5.63;;
20792;SDS011;10556;-33.662;151.094;2022-09-29T09:04:04;8.00;;;1.93;;
20792;SDS011;10556;-33.662;151.094;2022-09-29T09:09:16;7.77;;;2.63;;
20792;SDS011;10556;-33.662;151.094;2022-09-29T09:14:28;11.43;;;4.27;;
20792;SDS011;10556;-33.662;151.094;2022-09-29T09:19:35;7.60;;;3.70;;
20792;SDS011;10556;-33.662;151.094;2022-09-29T09:24:43;7.60;;;3.07;;
20792;SDS011;10556;-33.662;151.094;2022-09-29T09:29:47;10.60;;;2.87;;
20792;SDS011;10556;-33.662;151.094;2022-09-29T09:34:51;10.23;;;1.80;;
20792;SDS011;10556;-33.662;151.094;2022-09-29T09:39:55;7.57;;;3.23;;
20792;SDS011;10556;-33.662;151.094;2022-09-29T09:44:58;5.30;;;1.20;;
20792;SDS011;10556;-33.662;151.094;2022-09-29T09:50:01;6.30;;;1.20;;
20792;SDS011;10556;-33.662;151.094;2022-09-29T09:55:05;5.63;;;1.63;;
20792;SDS011;10556;-33.662;151.094;2022-09-29T10:00:10;4.27;;;1.30;;
20792;SDS011;10556;-33.662;151.094;2022-09-29T10:05:13;7.23;;;1.50;;
20792;SDS011;10556;-33.662;151.094;2022-09-29T10:10:17;8.87;;;1.20;;
20792;SDS011;10556;-33.662;151.094;2022-09-29T10:15:20;7.87;;;1.33;;
20792;SDS011;10556;-33.662;151.094;2022-09-29T10:20:31;4.80;;;1.30;;
20792;SDS011;10556;-33.662;151.094;2022-09-29T10:25:35;9.27;;;2.77;;
20792;SDS011;10556;-33.662;151.094;2022-09-29T10:30:37;2.47;;;0.90;;
20792;SDS011;10556;-33.662;151.094;2022-09-29T10:35:39;5.37;;;1.20;;
20792;SDS011;10556;-33.662;151.094;2022-09-29T10:40:47;5.13;;;1.00;;
20792;SDS011;10556;-33.662;151.094;2022-09-29T10:45:53;4.00;;;1.10;;
20792;SDS011;10556;-33.662;151.094;2022-09-29T10:50:54;3.63;;;0.73;;
20792;SDS011;10556;-33.662;151.094;2022-09-29T10:55:58;5.33;;;0.80;;
20792;SDS011;10556;-33.662;151.094;2022-09-29T11:01:05;5.67;;;0.73;;
20792;SDS011;10556;-33.662;151.094;2022-09-29T11:06:08;6.77;;;0.93;;
20792;SDS011;10556;-33.662;151.094;2022-09-29T11:11:18;9.57;;;0.90;;
20792;SDS011;10556;-33.662;151.094;2022-09-29T11:16:24;5.60;;;0.90;;
20792;SDS011;10556;-33.662;151.094;2022-09-29T11:27:02;4.33;;;0.83;;
20792;SDS011;10556;-33.662;151.094;2022-09-29T11:32:08;4.63;;;0.80;;
20792;SDS011;10556;-33.662;151.094;2022-09-29T11:37:14;5.27;;;0.97;;
20792;SDS011;10556;-33.662;151.094;2022-09-29T11:42:29;4.47;;;1.07;;
20792;SDS011;10556;-33.662;151.094;2022-09-29T11:47:38;9.33;;;0.90;;
20792;SDS011;10556;-33.662;151.094;2022-09-29T11:52:52;6.23;;;1.47;;
20792;SDS011;10556;-33.662;151.094;2022-09-29T11:58:01;5.20;;;0.90;;
20792;SDS011;10556;-33.662;151.094;2022-09-29T12:03:16;7.50;;;1.13;;
20792;SDS011;10556;-33.662;151.094;2022-09-29T12:08:22;5.93;;;1.13;;
20792;SDS011;10556;-33.662;151.094;2022-09-29T12:13:32;9.27;;;1.20;;
20792;SDS011;10556;-33.662;151.094;2022-09-29T12:18:34;9.10;;;1.13;;
20792;SDS011;10556;-33.662;151.094;2022-09-29T12:23:37;10.53;;;1.40;;
20792;SDS011;10556;-33.662;151.094;2022-09-29T12:28:42;8.83;;;1.23;;
20792;SDS011;10556;-33.662;151.094;2022-09-29T12:33:45;6.47;;;1.00;;
20792;SDS011;10556;-33.662;151.094;2022-09-29T12:38:49;5.43;;;0.80;;
20792;SDS011;10556;-33.662;151.094;2022-09-29T12:43:53;8.47;;;1.33;;
20792;SDS011;10556;-33.662;151.094;2022-09-29T12:49:00;3.93;;;1.23;;
20792;SDS011;10556;-33.662;151.094;2022-09-29T12:54:07;5.20;;;1.67;;
20792;SDS011;10556;-33.662;151.094;2022-09-29T12:59:17;10.97;;;1.70;;
20792;SDS011;10556;-33.662;151.094;2022-09-29T13:04:33;12.33;;;3.63;;
20792;SDS011;10556;-33.662;151.094;2022-09-29T13:15:01;12.03;;;1.87;;
20792;SDS011;10556;-33.662;151.094;2022-09-29T13:20:15;11.27;;;1.47;;
20792;SDS011;10556;-33.662;151.094;2022-09-29T13:25:21;10.87;;;1.53;;
20792;SDS011;10556;-33.662;151.094;2022-09-29T13:30:25;5.93;;;1.07;;
20792;SDS011;10556;-33.662;151.094;2022-09-29T13:35:27;7.10;;;1.47;;
20792;SDS011;10556;-33.662;151.094;2022-09-29T13:40:29;7.57;;;2.00;;
20792;SDS011;10556;-33.662;151.094;2022-09-29T13:50:48;10.13;;;1.17;;
20792;SDS011;10556;-33.662;151.094;2022-09-29T13:55:50;8.13;;;1.47;;
20792;SDS011;10556;-33.662;151.094;2022-09-29T14:00:51;9.67;;;1.87;;
20792;SDS011;10556;-33.662;151.094;2022-09-29T14:05:55;11.00;;;1.20;;
20792;SDS011;10556;-33.662;151.094;2022-09-29T14:11:01;10.40;;;1.70;;
20792;SDS011;10556;-33.662;151.094;2022-09-29T14:26:43;16.37;;;1.40;;
20792;SDS011;10556;-33.662;151.094;2022-09-29T14:31:48;9.70;;;1.20;;
20792;SDS011;10556;-33.662;151.094;2022-09-29T14:36:50;8.57;;;1.50;;
20792;SDS011;10556;-33.662;151.094;2022-09-29T14:41:55;8.67;;;1.40;;
20792;SDS011;10556;-33.662;151.094;2022-09-29T14:47:14;8.70;;;1.97;;
20792;SDS011;10556;-33.662;151.094;2022-09-29T14:52:19;8.43;;;1.17;;
20792;SDS011;10556;-33.662;151.094;2022-09-29T14:57:28;9.23;;;1.40;;
20792;SDS011;10556;-33.662;151.094;2022-09-29T15:02:32;6.97;;;1.20;;
20792;SDS011;10556;-33.662;151.094;2022-09-29T15:07:34;7.50;;;1.00;;
20792;SDS011;10556;-33.662;151.094;2022-09-29T15:12:41;11.83;;;1.30;;
20792;SDS011;10556;-33.662;151.094;2022-09-29T15:17:43;6.57;;;1.13;;
20792;SDS011;10556;-33.662;151.094;2022-09-29T15:28:08;8.27;;;1.40;;
20792;SDS011;10556;-33.662;151.094;2022-09-29T15:33:18;8.33;;;2.00;;
20792;SDS011;10556;-33.662;151.094;2022-09-29T15:38:30;11.93;;;1.60;;
20792;SDS011;10556;-33.662;151.094;2022-09-29T15:43:39;5.87;;;0.83;;
20792;SDS011;10556;-33.662;151.094;2022-09-29T15:48:41;5.10;;;1.00;;
20792;SDS011;10556;-33.662;151.094;2022-09-29T15:53:47;6.13;;;1.10;;
20792;SDS011;10556;-33.662;151.094;2022-09-29T15:58:50;3.67;;;1.27;;
20792;SDS011;10556;-33.662;151.094;2022-09-29T16:03:51;5.73;;;0.90;;
20792;SDS011;10556;-33.662;151.094;2022-09-29T16:08:55;6.27;;;0.87;;
20792;SDS011;10556;-33.662;151.094;2022-09-29T16:14:00;5.43;;;0.90;;
20792;SDS011;10556;-33.662;151.094;2022-09-29T16:19:05;4.53;;;0.93;;
20792;SDS011;10556;-33.662;151.094;2022-09-29T16:24:14;4.23;;;1.10;;
20792;SDS011;10556;-33.662;151.094;2022-09-29T16:29:27;5.10;;;0.73;;
20792;SDS011;10556;-33.662;151.094;2022-09-29T16:34:30;6.83;;;0.80;;
20792;SDS011;10556;-33.662;151.094;2022-09-29T16:39:32;4.87;;;1.20;;
20792;SDS011;10556;-33.662;151.094;2022-09-29T16:44:41;3.30;;;0.60;;
20792;SDS011;10556;-33.662;151.094;2022-09-29T16:49:44;5.07;;;1.00;;
20792;SDS011;10556;-33.662;151.094;2022-09-29T16:54:46;6.33;;;1.10;;
20792;SDS011;10556;-33.662;151.094;2022-09-29T16:59:50;3.30;;;0.70;;
20792;SDS011;10556;-33.662;151.094;2022-09-29T17:04:51;4.43;;;1.10;;
20792;SDS011;10556;-33.662;151.094;2022-09-29T17:09:53;4.67;;;0.60;;
20792;SDS011;10556;-33.662;151.094;2022-09-29T17:14:57;2.87;;;0.70;;
20792;SDS011;10556;-33.662;151.094;2022-09-29T17:19:58;2.43;;;0.50;;
20792;SDS011;10556;-33.662;151.094;2022-09-29T17:25:00;3.90;;;0.80;;
20792;SDS011;10556;-33.662;151.094;2022-09-29T17:30:03;4.07;;;0.70;;
20792;SDS011;10556;-33.662;151.094;2022-09-29T17:35:05;3.10;;;0.70;;
20792;SDS011;10556;-33.662;151.094;2022-09-29T17:40:12;3.00;;;0.50;;
20792;SDS011;10556;-33.662;151.094;2022-09-29T17:45:19;2.33;;;0.50;;
20792;SDS011;10556;-33.662;151.094;2022-09-29T17:50:22;3.80;;;0.70;;
20792;SDS011;10556;-33.662;151.094;2022-09-29T17:55:26;5.33;;;0.60;;
20792;SDS011;10556;-33.662;151.094;2022-09-29T18:00:30;4.63;;;0.77;;
20792;SDS011;10556;-33.662;151.094;2022-09-29T18:05:32;6.97;;;0.90;;
20792;SDS011;10556;-33.662;151.094;2022-09-29T18:10:34;7.47;;;1.30;;
20792;SDS011;10556;-33.662;151.094;2022-09-29T18:15:39;5.13;;;1.00;;
20792;SDS011;10556;-33.662;151.094;2022-09-29T18:20:40;4.17;;;0.90;;
20792;SDS011;10556;-33.662;151.094;2022-09-29T18:25:42;6.10;;;0.90;;
20792;SDS011;10556;-33.662;151.094;2022-09-29T18:30:46;8.77;;;1.30;;
20792;SDS011;10556;-33.662;151.094;2022-09-29T18:35:50;5.13;;;0.83;;
20792;SDS011;10556;-33.662;151.094;2022-09-29T18:40:51;7.27;;;0.90;;
20792;SDS011;10556;-33.662;151.094;2022-09-29T18:45:55;4.77;;;1.03;;
20792;SDS011;10556;-33.662;151.094;2022-09-29T18:50:56;7.40;;;1.47;;
20792;SDS011;10556;-33.662;151.094;2022-09-29T18:55:59;8.13;;;1.03;;
20792;SDS011;10556;-33.662;151.094;2022-09-29T19:01:03;7.87;;;1.20;;
20792;SDS011;10556;-33.662;151.094;2022-09-29T19:06:05;4.47;;;1.10;;
20792;SDS011;10556;-33.662;151.094;2022-09-29T19:11:11;6.57;;;1.07;;
20792;SDS011;10556;-33.662;151.094;2022-09-29T19:16:15;6.57;;;1.23;;
20792;SDS011;10556;-33.662;151.094;2022-09-29T19:21:17;9.80;;;1.33;;
20792;SDS011;10556;-33.662;151.094;2022-09-29T19:26:18;7.77;;;1.20;;
20792;SDS011;10556;-33.662;151.094;2022-09-29T19:31:22;4.47;;;1.00;;
20792;SDS011;10556;-33.662;151.094;2022-09-29T19:36:23;5.87;;;1.37;;
20792;SDS011;10556;-33.662;151.094;2022-09-29T19:41:25;8.20;;;1.20;;
20792;SDS011;10556;-33.662;151.094;2022-09-29T19:46:28;6.40;;;1.10;;
20792;SDS011;10556;-33.662;151.094;2022-09-29T19:51:29;11.70;;;1.33;;
20792;SDS011;10556;-33.662;151.094;2022-09-29T19:56:30;6.57;;;1.00;;
20792;SDS011;10556;-33.662;151.094;2022-09-29T20:01:33;8.37;;;1.07;;
20792;SDS011;10556;-33.662;151.094;2022-09-29T20:06:35;8.37;;;1.30;;
20792;SDS011;10556;-33.662;151.094;2022-09-29T20:11:36;6.17;;;0.93;;
20792;SDS011;10556;-33.662;151.094;2022-09-29T20:16:40;6.30;;;1.00;;
20792;SDS011;10556;-33.662;151.094;2022-09-29T20:21:41;7.60;;;1.73;;
20792;SDS011;10556;-33.662;151.094;2022-09-29T20:26:43;8.67;;;1.30;;
20792;SDS011;10556;-33.662;151.094;2022-09-29T20:31:47;5.43;;;1.10;;
20792;SDS011;10556;-33.662;151.094;2022-09-29T20:36:48;6.03;;;1.13;;
20792;SDS011;10556;-33.662;151.094;2022-09-29T20:41:50;4.50;;;1.00;;
20792;SDS011;10556;-33.662;151.094;2022-09-29T20:46:53;10.57;;;1.20;;
20792;SDS011;10556;-33.662;151.094;2022-09-29T20:51:54;6.47;;;1.10;;
20792;SDS011;10556;-33.662;151.094;2022-09-29T20:56:56;8.67;;;1.63;;
20792;SDS011;10556;-33.662;151.094;2022-09-29T21:01:59;5.50;;;1.10;;
20792;SDS011;10556;-33.662;151.094;2022-09-29T21:07:00;7.90;;;1.27;;
20792;SDS011;10556;-33.662;151.094;2022-09-29T21:12:02;14.27;;;1.70;;
20792;SDS011;10556;-33.662;151.094;2022-09-29T21:17:05;10.77;;;1.23;;
20792;SDS011;10556;-33.662;151.094;2022-09-29T21:22:06;9.37;;;1.33;;
20792;SDS011;10556;-33.662;151.094;2022-09-29T21:27:07;10.63;;;1.60;;
20792;SDS011;10556;-33.662;151.094;2022-09-29T21:32:11;7.83;;;1.30;;
20792;SDS011;10556;-33.662;151.094;2022-09-29T21:37:12;15.83;;;1.80;;
20792;SDS011;10556;-33.662;151.094;2022-09-29T21:42:13;12.43;;;1.53;;
20792;SDS011;10556;-33.662;151.094;2022-09-29T21:47:16;9.70;;;1.70;;
20792;SDS011;10556;-33.662;151.094;2022-09-29T21:52:18;13.37;;;1.77;;
20792;SDS011;10556;-33.662;151.094;2022-09-29T21:57:19;9.20;;;2.10;;
20792;SDS011;10556;-33.662;151.094;2022-09-29T22:02:22;13.83;;;1.80;;
20792;SDS011;10556;-33.662;151.094;2022-09-29T22:07:23;9.93;;;2.10;;
20792;SDS011;10556;-33.662;151.094;2022-09-29T22:12:25;7.73;;;1.67;;
20792;SDS011;10556;-33.662;151.094;2022-09-29T22:17:28;8.63;;;1.90;;
20792;SDS011;10556;-33.662;151.094;2022-09-29T22:22:29;6.20;;;1.30;;
20792;SDS011;10556;-33.662;151.094;2022-09-29T22:27:31;9.43;;;1.90;;
20792;SDS011;10556;-33.662;151.094;2022-09-29T22:32:34;8.93;;;1.70;;
20792;SDS011;10556;-33.662;151.094;2022-09-29T22:37:35;10.33;;;2.27;;
20792;SDS011;10556;-33.662;151.094;2022-09-29T22:42:36;11.37;;;2.07;;
20792;SDS011;10556;-33.662;151.094;2022-09-29T22:47:40;10.43;;;2.23;;
20792;SDS011;10556;-33.662;151.094;2022-09-29T22:52:41;14.27;;;1.40;;
20792;SDS011;10556;-33.662;151.094;2022-09-29T22:57:42;13.00;;;1.83;;
20792;SDS011;10556;-33.662;151.094;2022-09-29T23:02:45;3.00;;;1.17;;
20792;SDS011;10556;-33.662;151.094;2022-09-29T23:07:47;8.17;;;1.63;;
20792;SDS011;10556;-33.662;151.094;2022-09-29T23:12:48;6.70;;;1.50;;
20792;SDS011;10556;-33.662;151.094;2022-09-29T23:17:51;4.60;;;1.37;;
20792;SDS011;10556;-33.662;151.094;2022-09-29T23:22:53;12.57;;;2.17;;
20792;SDS011;10556;-33.662;151.094;2022-09-29T23:27:54;11.93;;;2.00;;
20792;SDS011;10556;-33.662;151.094;2022-09-29T23:32:57;13.27;;;1.90;;
20792;SDS011;10556;-33.662;151.094;2022-09-29T23:37:59;11.63;;;1.60;;
20792;SDS011;10556;-33.662;151.094;2022-09-29T23:43:00;9.47;;;1.70;;
20792;SDS011;10556;-33.662;151.094;2022-09-29T23:48:03;7.13;;;1.40;;
20792;SDS011;10556;-33.662;151.094;2022-09-29T23:53:04;7.93;;;1.73;;
20792;SDS011;10556;-33.662;151.094;2022-09-29T23:58:06;10.73;;;1.50;;
